Orlik, Russia
Current Conditions -  °F | °C
As of 2:00 AM on Sunday 26 Oct 2014 (Local Time) from UIII Reporting Station
Clear Clear  
Wind Chill:   Ceiling: Unl
Heat Index: 14°   Visibility: 6mi
Dew Point:   Wind: 7mph
Humidity: 73%   Direction: 140°SE
Pressure: 30.24"   Gusts: NA
Location:  52.51°N, 99.83°E
Report Text: UIII 251800Z 14003MPS CAVOK M10/M14 Q1024 NOSIG RMK QFE723/096430920260
Loading
Personal Weather Stations






























Interactive Weather Map New forecast layout! Learn more

10-Day Weather Forecast

Advertisements
Track Severe Weather on mobile